RYR40M LOWI-LDDU
Flight info
| Callsign | RYR40M |
|---|---|
| Flight time | 1h 8m |
| Altitude | 35000 |
| Route | RTT DCT VEKEN DCT SABAD DCT SIPAL DCT NERRA |
| Aircraft | B738/M-SDE2E3FGHIRWXY/LB1 |
Departure
| Time | 2026-05-06 17:44 |
|---|---|
| Airport | Innsbruck Airport (LOWI) |
Arrival
| Time | 2026-05-06 18:52 |
|---|---|
| Airport | Dubrovnik Ruđer Bošković Airport (LDDU) |
| Time | Latitude | Longitude | Altitude | Speed | Heading |
|---|---|---|---|---|---|
| 2026-05-06 16:57 | 47.25844 | 11.35235 | 1895 ft | 0 kts | 171° |
| 2026-05-06 17:29 | 47.25855 | 11.35233 | 1894 ft | 4 kts | 171° |
| 2026-05-06 17:29 | 47.25877 | 11.35228 | 1894 ft | 3 kts | 172° |
| 2026-05-06 17:29 | 47.25896 | 11.35231 | 1899 ft | 4 kts | 243° |
| 2026-05-06 17:29 | 47.25902 | 11.35266 | 1894 ft | 4 kts | 261° |
| 2026-05-06 17:30 | 47.25904 | 11.35279 | 1896 ft | 0 kts | 261° |
| 2026-05-06 17:35 | 47.25903 | 11.35277 | 1896 ft | 1 kts | 261° |
| 2026-05-06 17:35 | 47.25901 | 11.35252 | 1892 ft | 4 kts | 260° |
| 2026-05-06 17:36 | 47.25884 | 11.35099 | 1897 ft | 11 kts | 264° |
| 2026-05-06 17:36 | 47.25869 | 11.34979 | 1899 ft | 13 kts | 258° |
| 2026-05-06 17:36 | 47.25855 | 11.34836 | 1903 ft | 15 kts | 264° |
| 2026-05-06 17:36 | 47.25840 | 11.34672 | 1900 ft | 17 kts | 258° |
| 2026-05-06 17:37 | 47.25819 | 11.34487 | 1899 ft | 19 kts | 261° |
| 2026-05-06 17:37 | 47.25795 | 11.34282 | 1898 ft | 21 kts | 262° |
| 2026-05-06 17:37 | 47.25777 | 11.34088 | 1895 ft | 13 kts | 263° |
| 2026-05-06 17:37 | 47.25784 | 11.33956 | 1893 ft | 13 kts | 289° |
| 2026-05-06 17:38 | 47.25803 | 11.33901 | 1896 ft | 0 kts | 301° |
| 2026-05-06 17:41 | 47.25803 | 11.33900 | 1903 ft | 0 kts | 301° |
| 2026-05-06 17:41 | 47.25823 | 11.33855 | 1896 ft | 11 kts | 305° |
| 2026-05-06 17:41 | 47.25886 | 11.33728 | 1903 ft | 18 kts | 306° |
| 2026-05-06 17:41 | 47.25930 | 11.33560 | 1903 ft | 18 kts | 264° |
| 2026-05-06 17:42 | 47.25911 | 11.33382 | 1900 ft | 17 kts | 260° |
| 2026-05-06 17:42 | 47.25873 | 11.33224 | 1903 ft | 17 kts | 220° |
| 2026-05-06 17:42 | 47.25838 | 11.33101 | 1903 ft | 7 kts | 285° |
| 2026-05-06 17:42 | 47.25875 | 11.33083 | 1893 ft | 7 kts | 39° |
| 2026-05-06 17:43 | 47.25886 | 11.33150 | 1903 ft | 8 kts | 82° |
| 2026-05-06 17:43 | 47.25923 | 11.33496 | 1896 ft | 73 kts | 81° |
| 2026-05-06 17:43 | 47.26039 | 11.34613 | 1899 ft | 146 kts | 83° |
| 2026-05-06 17:43 | 47.26266 | 11.36283 | 2197 ft | 182 kts | 82° |
| 2026-05-06 17:44 | 47.26503 | 11.38036 | 3392 ft | 171 kts | 81° |
| 2026-05-06 17:44 | 47.26729 | 11.39803 | 4221 ft | 174 kts | 82° |
| 2026-05-06 17:44 | 47.26950 | 11.41532 | 5115 ft | 178 kts | 81° |
| 2026-05-06 17:44 | 47.27185 | 11.43345 | 5898 ft | 179 kts | 81° |
| 2026-05-06 17:45 | 47.27448 | 11.45186 | 6518 ft | 187 kts | 77° |
| 2026-05-06 17:45 | 47.27798 | 11.47090 | 7079 ft | 200 kts | 78° |
| 2026-05-06 17:45 | 47.28187 | 11.49120 | 7442 ft | 216 kts | 77° |
| 2026-05-06 17:45 | 47.28602 | 11.51274 | 7983 ft | 221 kts | 77° |
| 2026-05-06 17:46 | 47.29022 | 11.53466 | 8527 ft | 224 kts | 78° |
| 2026-05-06 17:46 | 47.29447 | 11.55694 | 9112 ft | 228 kts | 78° |
| 2026-05-06 17:46 | 47.29869 | 11.57922 | 9729 ft | 228 kts | 78° |
| 2026-05-06 17:46 | 47.30296 | 11.60190 | 10213 ft | 231 kts | 78° |
| 2026-05-06 17:47 | 47.30730 | 11.62499 | 10701 ft | 235 kts | 78° |
| 2026-05-06 17:47 | 47.31195 | 11.64814 | 11213 ft | 238 kts | 70° |
| 2026-05-06 17:47 | 47.32080 | 11.66978 | 11442 ft | 257 kts | 58° |
| 2026-05-06 17:47 | 47.32711 | 11.69486 | 11557 ft | 269 kts | 94° |
| 2026-05-06 17:48 | 47.32235 | 11.72111 | 11775 ft | 269 kts | 128° |
| 2026-05-06 17:48 | 47.31150 | 11.74393 | 12218 ft | 275 kts | 131° |
| 2026-05-06 17:48 | 47.30020 | 11.76680 | 12823 ft | 277 kts | 132° |
| 2026-05-06 17:48 | 47.28889 | 11.79004 | 13386 ft | 280 kts | 131° |
| 2026-05-06 17:49 | 47.27764 | 11.81371 | 13854 ft | 284 kts | 130° |
| 2026-05-06 17:49 | 47.26623 | 11.83810 | 14128 ft | 300 kts | 130° |
| 2026-05-06 17:49 | 47.25401 | 11.86449 | 14267 ft | 323 kts | 129° |
| 2026-05-06 17:49 | 47.24102 | 11.89290 | 14440 ft | 345 kts | 129° |
| 2026-05-06 17:50 | 47.22731 | 11.92319 | 14649 ft | 365 kts | 128° |
| 2026-05-06 17:50 | 47.21307 | 11.95492 | 15131 ft | 376 kts | 128° |
| 2026-05-06 17:50 | 47.19863 | 11.98729 | 15661 ft | 382 kts | 128° |
| 2026-05-06 17:50 | 47.18411 | 12.01996 | 16402 ft | 382 kts | 127° |
| 2026-05-06 17:51 | 47.16954 | 12.05277 | 17114 ft | 385 kts | 127° |
| 2026-05-06 17:51 | 47.15483 | 12.08581 | 17791 ft | 386 kts | 128° |
| 2026-05-06 17:51 | 47.14003 | 12.11893 | 18366 ft | 390 kts | 128° |
| 2026-05-06 17:51 | 47.12501 | 12.15251 | 18818 ft | 396 kts | 128° |
| 2026-05-06 17:52 | 47.10983 | 12.18642 | 19371 ft | 399 kts | 128° |
| 2026-05-06 17:52 | 47.09457 | 12.22048 | 20112 ft | 399 kts | 128° |
| 2026-05-06 17:52 | 47.07925 | 12.25463 | 20608 ft | 403 kts | 129° |
| 2026-05-06 17:52 | 47.06382 | 12.28898 | 21208 ft | 404 kts | 129° |
| 2026-05-06 17:53 | 47.04836 | 12.32333 | 21927 ft | 403 kts | 129° |
| 2026-05-06 17:53 | 47.03298 | 12.35753 | 22629 ft | 402 kts | 129° |
| 2026-05-06 17:53 | 47.01757 | 12.39172 | 22798 ft | 398 kts | 129° |
| 2026-05-06 17:53 | 47.00228 | 12.42560 | 22826 ft | 400 kts | 130° |
| 2026-05-06 17:54 | 46.98676 | 12.45973 | 22828 ft | 404 kts | 131° |
| 2026-05-06 17:54 | 46.97115 | 12.49405 | 22869 ft | 404 kts | 130° |
| 2026-05-06 17:54 | 46.95563 | 12.52833 | 22857 ft | 404 kts | 130° |
| 2026-05-06 17:54 | 46.94002 | 12.56270 | 23026 ft | 408 kts | 131° |
| 2026-05-06 17:55 | 46.92404 | 12.59762 | 23270 ft | 419 kts | 130° |
| 2026-05-06 17:55 | 46.90756 | 12.63353 | 23390 ft | 432 kts | 130° |
| 2026-05-06 17:55 | 46.89056 | 12.67062 | 23483 ft | 445 kts | 130° |
| 2026-05-06 17:55 | 46.87334 | 12.70823 | 23583 ft | 457 kts | 130° |
| 2026-05-06 17:56 | 46.85552 | 12.74722 | 23663 ft | 466 kts | 129° |
| 2026-05-06 17:56 | 46.83712 | 12.78748 | 23758 ft | 475 kts | 129° |
| 2026-05-06 17:56 | 46.81892 | 12.82731 | 23957 ft | 480 kts | 129° |
| 2026-05-06 17:56 | 46.80036 | 12.86790 | 24279 ft | 481 kts | 129° |
| 2026-05-06 17:57 | 46.78183 | 12.90839 | 24736 ft | 478 kts | 130° |
| 2026-05-06 17:57 | 46.76339 | 12.94862 | 25265 ft | 476 kts | 130° |
| 2026-05-06 17:57 | 46.74499 | 12.98863 | 25710 ft | 475 kts | 130° |
| 2026-05-06 17:57 | 46.72658 | 13.02854 | 26101 ft | 475 kts | 130° |
| 2026-05-06 17:58 | 46.70814 | 13.06846 | 26533 ft | 473 kts | 130° |
| 2026-05-06 17:58 | 46.68986 | 13.10799 | 26983 ft | 470 kts | 130° |
| 2026-05-06 17:58 | 46.67152 | 13.14757 | 27334 ft | 473 kts | 130° |
| 2026-05-06 17:58 | 46.65306 | 13.18731 | 27680 ft | 474 kts | 130° |
| 2026-05-06 17:59 | 46.63457 | 13.22711 | 28160 ft | 473 kts | 131° |
| 2026-05-06 17:59 | 46.61622 | 13.26661 | 28657 ft | 471 kts | 131° |
| 2026-05-06 17:59 | 46.59793 | 13.30593 | 29137 ft | 469 kts | 131° |
| 2026-05-06 17:59 | 46.57964 | 13.34514 | 29561 ft | 468 kts | 131° |
| 2026-05-06 18:00 | 46.56064 | 13.38342 | 29922 ft | 463 kts | 137° |
| 2026-05-06 18:00 | 46.53865 | 13.41681 | 30251 ft | 454 kts | 144° |
| 2026-05-06 18:00 | 46.51577 | 13.44833 | 30542 ft | 455 kts | 143° |
| 2026-05-06 18:00 | 46.49258 | 13.47980 | 30774 ft | 457 kts | 143° |
| 2026-05-06 18:01 | 46.46955 | 13.51111 | 31288 ft | 452 kts | 143° |
| 2026-05-06 18:01 | 46.44668 | 13.54235 | 31634 ft | 452 kts | 143° |
| 2026-05-06 18:01 | 46.42382 | 13.57374 | 32048 ft | 449 kts | 143° |
| 2026-05-06 18:01 | 46.40119 | 13.60494 | 32368 ft | 450 kts | 143° |
| 2026-05-06 18:02 | 46.37846 | 13.63626 | 32501 ft | 453 kts | 143° |
| 2026-05-06 18:02 | 46.35563 | 13.66775 | 32808 ft | 453 kts | 143° |
| 2026-05-06 18:02 | 46.34057 | 13.68855 | 33125 ft | 451 kts | 144° |
| 2026-05-06 18:02 | 46.31796 | 13.71978 | 33649 ft | 446 kts | 144° |
| 2026-05-06 18:03 | 46.29552 | 13.75071 | 33960 ft | 445 kts | 143° |
| 2026-05-06 18:03 | 46.26570 | 13.79170 | 34245 ft | 447 kts | 143° |
| 2026-05-06 18:03 | 46.25046 | 13.81260 | 34431 ft | 446 kts | 143° |
| 2026-05-06 18:03 | 46.22060 | 13.85349 | 34747 ft | 447 kts | 143° |
| 2026-05-06 18:04 | 46.20541 | 13.87429 | 34875 ft | 446 kts | 142° |
| 2026-05-06 18:04 | 46.18279 | 13.90523 | 34888 ft | 448 kts | 143° |
| 2026-05-06 18:04 | 46.13749 | 13.96708 | 34903 ft | 448 kts | 143° |
| 2026-05-06 18:05 | 46.09226 | 14.02873 | 34879 ft | 446 kts | 143° |
| 2026-05-06 18:05 | 46.04728 | 14.08988 | 34909 ft | 444 kts | 143° |
| 2026-05-06 18:06 | 46.00237 | 14.15078 | 34922 ft | 443 kts | 143° |
| 2026-05-06 18:06 | 45.95743 | 14.21154 | 34923 ft | 443 kts | 143° |
| 2026-05-06 18:07 | 45.91274 | 14.27184 | 34926 ft | 444 kts | 143° |
| 2026-05-06 18:07 | 45.86763 | 14.33258 | 34916 ft | 445 kts | 143° |
| 2026-05-06 18:08 | 45.82240 | 14.39333 | 34930 ft | 446 kts | 143° |
| 2026-05-06 18:08 | 45.77708 | 14.45407 | 34928 ft | 448 kts | 143° |
| 2026-05-06 18:09 | 45.73141 | 14.51513 | 34921 ft | 449 kts | 143° |
| 2026-05-06 18:09 | 45.68571 | 14.57611 | 34925 ft | 449 kts | 143° |
| 2026-05-06 18:10 | 45.64024 | 14.63664 | 34918 ft | 448 kts | 143° |
| 2026-05-06 18:10 | 45.59464 | 14.69721 | 34937 ft | 449 kts | 143° |
| 2026-05-06 18:11 | 45.54863 | 14.75812 | 34926 ft | 451 kts | 143° |
| 2026-05-06 18:11 | 45.50257 | 14.81904 | 34936 ft | 453 kts | 143° |
| 2026-05-06 18:12 | 45.45572 | 14.87919 | 34924 ft | 450 kts | 148° |
| 2026-05-06 18:12 | 45.40488 | 14.93066 | 34928 ft | 448 kts | 152° |
| 2026-05-06 18:13 | 45.35324 | 14.98028 | 34926 ft | 448 kts | 152° |
| 2026-05-06 18:13 | 45.30198 | 15.03003 | 34940 ft | 449 kts | 151° |
| 2026-05-06 18:14 | 45.25054 | 15.08053 | 34937 ft | 450 kts | 151° |
| 2026-05-06 18:14 | 45.19919 | 15.13108 | 34934 ft | 450 kts | 151° |
| 2026-05-06 18:15 | 45.14780 | 15.18161 | 34908 ft | 449 kts | 150° |
| 2026-05-06 18:15 | 45.09625 | 15.23216 | 34938 ft | 448 kts | 150° |
| 2026-05-06 18:16 | 45.04504 | 15.28224 | 34947 ft | 447 kts | 150° |
| 2026-05-06 18:16 | 44.99388 | 15.33216 | 34954 ft | 447 kts | 150° |
| 2026-05-06 18:17 | 44.94256 | 15.38212 | 34965 ft | 448 kts | 150° |
| 2026-05-06 18:17 | 44.89129 | 15.43193 | 34951 ft | 448 kts | 151° |
| 2026-05-06 18:18 | 44.83982 | 15.48181 | 34964 ft | 449 kts | 151° |
| 2026-05-06 18:18 | 44.78830 | 15.53164 | 34967 ft | 450 kts | 151° |
| 2026-05-06 18:19 | 44.73658 | 15.58154 | 34973 ft | 451 kts | 151° |
| 2026-05-06 18:19 | 44.68486 | 15.63136 | 34967 ft | 450 kts | 152° |
| 2026-05-06 18:20 | 44.63318 | 15.68103 | 34968 ft | 450 kts | 153° |
| 2026-05-06 18:20 | 44.58179 | 15.73030 | 34992 ft | 450 kts | 153° |
| 2026-05-06 18:21 | 44.53005 | 15.77979 | 34991 ft | 451 kts | 153° |
| 2026-05-06 18:21 | 44.47817 | 15.82930 | 34993 ft | 451 kts | 153° |
| 2026-05-06 18:22 | 44.42626 | 15.87874 | 34989 ft | 452 kts | 153° |
| 2026-05-06 18:22 | 44.37423 | 15.92819 | 34980 ft | 452 kts | 154° |
| 2026-05-06 18:23 | 44.32224 | 15.97749 | 35001 ft | 452 kts | 154° |
| 2026-05-06 18:23 | 44.27014 | 16.02679 | 34997 ft | 452 kts | 154° |
| 2026-05-06 18:24 | 44.24435 | 16.05114 | 34724 ft | 457 kts | 154° |
| 2026-05-06 18:24 | 44.21802 | 16.07595 | 34354 ft | 454 kts | 154° |
| 2026-05-06 18:24 | 44.19232 | 16.10029 | 34384 ft | 443 kts | 154° |
| 2026-05-06 18:24 | 44.16665 | 16.12449 | 34225 ft | 448 kts | 154° |
| 2026-05-06 18:25 | 44.14057 | 16.14894 | 33973 ft | 455 kts | 154° |
| 2026-05-06 18:25 | 44.11418 | 16.17365 | 33708 ft | 458 kts | 153° |
| 2026-05-06 18:25 | 44.08776 | 16.19844 | 33428 ft | 456 kts | 153° |
| 2026-05-06 18:25 | 44.06152 | 16.22307 | 33127 ft | 453 kts | 153° |
| 2026-05-06 18:26 | 44.03537 | 16.24759 | 32416 ft | 454 kts | 153° |
| 2026-05-06 18:26 | 44.00930 | 16.27199 | 31812 ft | 452 kts | 153° |
| 2026-05-06 18:26 | 43.98332 | 16.29630 | 31390 ft | 447 kts | 152° |
| 2026-05-06 18:26 | 43.95761 | 16.32033 | 30919 ft | 443 kts | 152° |
| 2026-05-06 18:27 | 43.93212 | 16.34412 | 30466 ft | 440 kts | 152° |
| 2026-05-06 18:27 | 43.90681 | 16.36771 | 29990 ft | 436 kts | 152° |
| 2026-05-06 18:27 | 43.88181 | 16.39098 | 29477 ft | 432 kts | 152° |
| 2026-05-06 18:27 | 43.85729 | 16.41377 | 28999 ft | 426 kts | 152° |
| 2026-05-06 18:28 | 43.83279 | 16.43654 | 28591 ft | 420 kts | 152° |
| 2026-05-06 18:28 | 43.80877 | 16.45885 | 28333 ft | 414 kts | 152° |
| 2026-05-06 18:28 | 43.78441 | 16.48135 | 28079 ft | 428 kts | 151° |
| 2026-05-06 18:28 | 43.75916 | 16.50459 | 27845 ft | 443 kts | 151° |
| 2026-05-06 18:29 | 43.73308 | 16.52859 | 27596 ft | 458 kts | 150° |
| 2026-05-06 18:29 | 43.70620 | 16.55337 | 27346 ft | 468 kts | 150° |
| 2026-05-06 18:29 | 43.67941 | 16.57815 | 26899 ft | 457 kts | 150° |
| 2026-05-06 18:29 | 43.65321 | 16.60244 | 25774 ft | 453 kts | 150° |
| 2026-05-06 18:30 | 43.62690 | 16.62672 | 24460 ft | 456 kts | 150° |
| 2026-05-06 18:30 | 43.60049 | 16.65103 | 23143 ft | 457 kts | 149° |
| 2026-05-06 18:30 | 43.57410 | 16.67529 | 21730 ft | 455 kts | 149° |
| 2026-05-06 18:30 | 43.54783 | 16.69942 | 20534 ft | 450 kts | 149° |
| 2026-05-06 18:31 | 43.52204 | 16.72310 | 19475 ft | 442 kts | 149° |
| 2026-05-06 18:31 | 43.49672 | 16.74633 | 18494 ft | 433 kts | 149° |
| 2026-05-06 18:31 | 43.47191 | 16.76905 | 17395 ft | 424 kts | 149° |
| 2026-05-06 18:31 | 43.44759 | 16.79128 | 16371 ft | 416 kts | 149° |
| 2026-05-06 18:32 | 43.42395 | 16.81288 | 15974 ft | 396 kts | 149° |
| 2026-05-06 18:32 | 43.40113 | 16.83370 | 15697 ft | 392 kts | 149° |
| 2026-05-06 18:32 | 43.37858 | 16.85425 | 14873 ft | 387 kts | 149° |
| 2026-05-06 18:32 | 43.35612 | 16.87468 | 13815 ft | 387 kts | 149° |
| 2026-05-06 18:33 | 43.33366 | 16.89510 | 12600 ft | 386 kts | 149° |
| 2026-05-06 18:33 | 43.31136 | 16.91536 | 11521 ft | 382 kts | 149° |
| 2026-05-06 18:33 | 43.28966 | 16.93508 | 10587 ft | 375 kts | 149° |
| 2026-05-06 18:33 | 43.26803 | 16.95474 | 10131 ft | 359 kts | 149° |
| 2026-05-06 18:34 | 43.24736 | 16.97349 | 9887 ft | 355 kts | 149° |
| 2026-05-06 18:34 | 43.22751 | 16.99149 | 9608 ft | 337 kts | 149° |
| 2026-05-06 18:34 | 43.20850 | 17.00872 | 9328 ft | 318 kts | 149° |
| 2026-05-06 18:34 | 43.19051 | 17.02502 | 9051 ft | 302 kts | 149° |
| 2026-05-06 18:35 | 43.17340 | 17.04048 | 8776 ft | 288 kts | 149° |
| 2026-05-06 18:35 | 43.15703 | 17.05527 | 8507 ft | 276 kts | 149° |
| 2026-05-06 18:35 | 43.14138 | 17.06954 | 8243 ft | 266 kts | 146° |
| 2026-05-06 18:35 | 43.12896 | 17.08798 | 8016 ft | 266 kts | 127° |
| 2026-05-06 18:36 | 43.11870 | 17.10924 | 7792 ft | 269 kts | 126° |
| 2026-05-06 18:36 | 43.10839 | 17.13061 | 7541 ft | 268 kts | 127° |
| 2026-05-06 18:36 | 43.09813 | 17.15181 | 7296 ft | 266 kts | 127° |
| 2026-05-06 18:36 | 43.08800 | 17.17265 | 7201 ft | 258 kts | 127° |
| 2026-05-06 18:37 | 43.07804 | 17.19305 | 7033 ft | 261 kts | 127° |
| 2026-05-06 18:37 | 43.07133 | 17.20674 | 6873 ft | 262 kts | 127° |
| 2026-05-06 18:37 | 43.05775 | 17.23442 | 6552 ft | 262 kts | 126° |
| 2026-05-06 18:37 | 43.04762 | 17.25506 | 6304 ft | 260 kts | 127° |
| 2026-05-06 18:38 | 43.03755 | 17.27555 | 6049 ft | 259 kts | 126° |
| 2026-05-06 18:38 | 43.02752 | 17.29593 | 5800 ft | 257 kts | 127° |
| 2026-05-06 18:38 | 43.01756 | 17.31614 | 5548 ft | 256 kts | 127° |
| 2026-05-06 18:38 | 43.00729 | 17.33691 | 5330 ft | 279 kts | 127° |
| 2026-05-06 18:39 | 42.99565 | 17.36038 | 5115 ft | 311 kts | 126° |
| 2026-05-06 18:39 | 42.98369 | 17.38462 | 4985 ft | 301 kts | 126° |
| 2026-05-06 18:39 | 42.97229 | 17.40777 | 4952 ft | 287 kts | 126° |
| 2026-05-06 18:40 | 42.95068 | 17.45155 | 4959 ft | 278 kts | 126° |
| 2026-05-06 18:40 | 42.93985 | 17.47341 | 4957 ft | 276 kts | 127° |
| 2026-05-06 18:40 | 42.92935 | 17.49459 | 4952 ft | 270 kts | 126° |
| 2026-05-06 18:40 | 42.91889 | 17.51569 | 4953 ft | 260 kts | 126° |
| 2026-05-06 18:41 | 42.90905 | 17.53553 | 4956 ft | 252 kts | 127° |
| 2026-05-06 18:41 | 42.89849 | 17.55436 | 4961 ft | 247 kts | 136° |
| 2026-05-06 18:41 | 42.88651 | 17.57108 | 4958 ft | 247 kts | 138° |
| 2026-05-06 18:41 | 42.87423 | 17.58764 | 4962 ft | 250 kts | 139° |
| 2026-05-06 18:42 | 42.86165 | 17.60468 | 4977 ft | 253 kts | 137° |
| 2026-05-06 18:42 | 42.84936 | 17.62149 | 4985 ft | 255 kts | 138° |
| 2026-05-06 18:42 | 42.83689 | 17.63864 | 4963 ft | 254 kts | 137° |
| 2026-05-06 18:42 | 42.82453 | 17.65575 | 4943 ft | 251 kts | 137° |
| 2026-05-06 18:43 | 42.81242 | 17.67258 | 4973 ft | 248 kts | 137° |
| 2026-05-06 18:43 | 42.80029 | 17.68938 | 4969 ft | 249 kts | 137° |
| 2026-05-06 18:43 | 42.78812 | 17.70625 | 4971 ft | 249 kts | 138° |
| 2026-05-06 18:43 | 42.77607 | 17.72321 | 4967 ft | 250 kts | 133° |
| 2026-05-06 18:44 | 42.76680 | 17.74342 | 4980 ft | 254 kts | 121° |
| 2026-05-06 18:44 | 42.75912 | 17.76513 | 4981 ft | 255 kts | 118° |
| 2026-05-06 18:44 | 42.75173 | 17.78704 | 4967 ft | 253 kts | 118° |
| 2026-05-06 18:44 | 42.74391 | 17.80840 | 4962 ft | 252 kts | 120° |
| 2026-05-06 18:45 | 42.73575 | 17.82956 | 4969 ft | 253 kts | 120° |
| 2026-05-06 18:45 | 42.72740 | 17.85049 | 4982 ft | 251 kts | 122° |
| 2026-05-06 18:45 | 42.71907 | 17.87129 | 4948 ft | 251 kts | 121° |
| 2026-05-06 18:45 | 42.71337 | 17.88555 | 4823 ft | 255 kts | 122° |
| 2026-05-06 18:46 | 42.70222 | 17.91352 | 4559 ft | 251 kts | 121° |
| 2026-05-06 18:46 | 42.69400 | 17.93416 | 4369 ft | 246 kts | 121° |
| 2026-05-06 18:46 | 42.68593 | 17.95443 | 4202 ft | 241 kts | 120° |
| 2026-05-06 18:46 | 42.67802 | 17.97430 | 4019 ft | 237 kts | 121° |
| 2026-05-06 18:47 | 42.67032 | 17.99363 | 3885 ft | 227 kts | 121° |
| 2026-05-06 18:47 | 42.66313 | 18.01172 | 3695 ft | 208 kts | 120° |
| 2026-05-06 18:47 | 42.65655 | 18.02826 | 3509 ft | 190 kts | 121° |
| 2026-05-06 18:47 | 42.65054 | 18.04337 | 3371 ft | 174 kts | 121° |
| 2026-05-06 18:48 | 42.64507 | 18.05715 | 3211 ft | 159 kts | 121° |
| 2026-05-06 18:48 | 42.64005 | 18.06977 | 3069 ft | 145 kts | 121° |
| 2026-05-06 18:48 | 42.63540 | 18.08148 | 2868 ft | 141 kts | 121° |
| 2026-05-06 18:48 | 42.63078 | 18.09310 | 2708 ft | 136 kts | 121° |
| 2026-05-06 18:49 | 42.62645 | 18.10400 | 2601 ft | 128 kts | 120° |
| 2026-05-06 18:49 | 42.62371 | 18.11092 | 2609 ft | 126 kts | 120° |
| 2026-05-06 18:49 | 42.61929 | 18.12206 | 2595 ft | 142 kts | 120° |
| 2026-05-06 18:49 | 42.61444 | 18.13441 | 2504 ft | 154 kts | 119° |
| 2026-05-06 18:50 | 42.60926 | 18.14728 | 2263 ft | 154 kts | 121° |
| 2026-05-06 18:50 | 42.60420 | 18.15975 | 2029 ft | 147 kts | 118° |
| 2026-05-06 18:50 | 42.59961 | 18.17170 | 1821 ft | 139 kts | 118° |
| 2026-05-06 18:50 | 42.59500 | 18.18335 | 1523 ft | 142 kts | 122° |
| 2026-05-06 18:51 | 42.59016 | 18.19491 | 1359 ft | 143 kts | 117° |
| 2026-05-06 18:51 | 42.58568 | 18.20695 | 1221 ft | 141 kts | 116° |
| 2026-05-06 18:51 | 42.58109 | 18.21856 | 1080 ft | 137 kts | 119° |
| 2026-05-06 18:51 | 42.57652 | 18.23000 | 840 ft | 140 kts | 117° |
| 2026-05-06 18:52 | 42.57179 | 18.24139 | 677 ft | 138 kts | 118° |
| 2026-05-06 18:52 | 42.56748 | 18.25243 | 534 ft | 126 kts | 116° |
| 2026-05-06 18:52 | 42.56400 | 18.26163 | 533 ft | 75 kts | 115° |
| 2026-05-06 18:52 | 42.56239 | 18.26559 | 533 ft | 38 kts | 120° |
| 2026-05-06 18:53 | 42.56198 | 18.26627 | 533 ft | 7 kts | 144° |
| 2026-05-06 18:53 | 42.56163 | 18.26626 | 533 ft | 4 kts | 212° |
| 2026-05-06 18:53 | 42.56146 | 18.26596 | 533 ft | 4 kts | 241° |
| 2026-05-06 18:53 | 42.56131 | 18.26558 | 533 ft | 5 kts | 240° |
| 2026-05-06 18:54 | 42.56115 | 18.26518 | 533 ft | 5 kts | 242° |
| 2026-05-06 18:54 | 42.56101 | 18.26476 | 533 ft | 5 kts | 255° |
| 2026-05-06 18:54 | 42.56107 | 18.26428 | 533 ft | 6 kts | 292° |
| 2026-05-06 18:54 | 42.56126 | 18.26380 | 533 ft | 6 kts | 301° |
| 2026-05-06 18:55 | 42.56148 | 18.26327 | 533 ft | 7 kts | 292° |
| 2026-05-06 18:55 | 42.56137 | 18.26267 | 533 ft | 7 kts | 218° |
| 2026-05-06 18:55 | 42.56112 | 18.26250 | 533 ft | 0 kts | 207° |